Assateague Island Natl Seashore, Maryland
Current Conditions -  °F | °C
As of 4:53 PM on Monday 20 Oct 2014 (Local Time) from KOXB Reporting Station
Clear Clear  
Wind Chill: 62°   Ceiling: Unl
Heat Index: 62°   Visibility: 10mi
Dew Point: 44°   Wind: 14mph
Humidity: 52%   Direction: 210°SSW
Pressure: 30.01"   Gusts: 20mph
Location:  38.12°N, 75.19°W
Report Text: KOXB 202053Z AUTO 21012G17KT 10SM CLR 17/07 A3001 RMK AO2 SLP160 T01670067 56019 TSNO
Loading
Personal Weather Stations






























Interactive Weather Map
Tropical Storm Tracking
New forecast layout! Learn more

10-Day Weather Forecast

Advertisements
Track Severe Weather on mobile